Time;durP1;ratioP1;P1;durP2;ratioP2;P2;SDS_P1;SDS_P2;PMS_P1;PMS_P2;Temp;Humidity;BMP_temperature;BMP_pressure;BME280_temperature;BME280_humidity;BME280_pressure;Samples;Min_cycle;Max_cycle;Signal;HPM_P1;HPM_P2
2022/12/20 00:00:59;;;;;;;;;9.25;7.50;;;;;8.44;82.02;101182.44;5051666;28;10952;-66
2022/12/20 00:03:25;;;;;;;;;10.25;10.00;;;;;8.44;82.60;101182.44;5066340;28;10718;-66
2022/12/20 00:05:52;;;;;;;;;13.00;9.25;;;;;8.51;82.47;101179.91;5063748;28;10797;-66
2022/12/20 00:08:18;;;;;;;;;10.25;10.25;;;;;8.40;82.15;101173.91;5062045;28;10850;-66
2022/12/20 00:10:45;;;;;;;;;9.50;9.50;;;;;8.41;82.17;101182.78;5070941;28;10857;-66
2022/12/20 00:13:12;;;;;;;;;11.75;9.00;;;;;8.42;82.18;101187.97;5057092;28;10787;-66
2022/12/20 00:15:38;;;;;;;;;10.25;10.25;;;;;8.44;82.01;101190.50;5059376;28;10743;-66
2022/12/20 00:18:05;;;;;;;;;14.75;12.00;;;;;8.43;82.20;101180.78;5066911;28;11509;-66
2022/12/20 00:20:32;;;;;;;;;8.00;6.25;;;;;8.46;81.96;101185.78;5070593;28;10749;-66
2022/12/20 00:22:58;;;;;;;;;10.00;10.00;;;;;8.44;81.45;101185.13;5063948;28;10714;-66
2022/12/20 00:25:25;;;;;;;;;8.00;7.75;;;;;8.47;82.06;101173.19;5068959;28;10525;-68
2022/12/20 00:27:51;;;;;;;;;14.25;10.00;;;;;8.47;81.55;101173.19;5054169;28;10577;-65
2022/12/20 00:30:18;;;;;;;;;9.75;8.75;;;;;8.47;81.39;101168.69;5063950;28;10737;-67
2022/12/20 00:32:45;;;;;;;;;11.50;11.00;;;;;8.49;81.98;101168.50;5064905;28;11397;-64
2022/12/20 00:35:12;;;;;;;;;8.50;8.25;;;;;8.49;81.79;101160.47;5057439;28;10631;-65
2022/12/20 00:37:39;;;;;;;;;12.00;10.75;;;;;8.49;81.59;101160.47;5059728;28;10860;-66
2022/12/20 00:40:06;;;;;;;;;12.25;10.25;;;;;8.46;81.61;101155.44;5064729;28;10772;-65
2022/12/20 00:42:32;;;;;;;;;11.00;11.00;;;;;8.46;82.00;101158.94;5055283;28;10618;-64
2022/12/20 00:44:59;;;;;;;;;11.75;11.00;;;;;8.47;82.01;101159.78;5053740;28;10722;-66
2022/12/20 00:47:25;;;;;;;;;12.50;10.25;;;;;8.49;81.79;101161.28;5047984;28;10771;-65
2022/12/20 00:49:52;;;;;;;;;9.25;8.00;;;;;8.51;81.81;101163.81;5050651;28;10627;-65
2022/12/20 00:52:18;;;;;;;;;13.00;11.25;;;;;8.49;81.27;101161.28;5053327;28;10657;-65
2022/12/20 00:54:45;;;;;;;;;12.00;12.00;;;;;8.49;81.71;101152.41;5064560;28;10707;-66
2022/12/20 00:57:11;;;;;;;;;11.00;10.75;;;;;8.50;81.26;101149.53;5053608;28;10643;-67
2022/12/20 00:59:37;;;;;;;;;11.25;11.00;;;;;8.53;81.14;101157.25;5056871;28;10694;-66
2022/12/20 01:02:04;;;;;;;;;7.25;7.25;;;;;8.55;81.37;101149.88;5060867;28;10616;-67
2022/12/20 01:04:31;;;;;;;;;7.75;7.25;;;;;8.53;81.23;101138.47;5071259;28;10646;-66
2022/12/20 01:06:57;;;;;;;;;9.50;9.50;;;;;8.48;81.66;101140.84;5052388;28;10694;-67
2022/12/20 01:09:23;;;;;;;;;8.75;8.75;;;;;8.47;81.91;101138.31;5062367;28;10752;-66
2022/12/20 01:11:50;;;;;;;;;8.75;8.50;;;;;8.47;81.53;101125.78;5055565;28;10786;-65
2022/12/20 01:14:16;;;;;;;;;10.00;10.00;;;;;8.52;81.42;101125.25;5057044;28;10686;-65
2022/12/20 01:16:45;;;;;;;;;7.00;7.00;;;;;8.55;81.66;101114.16;5061958;28;10668;-65
2022/12/20 01:19:16;;;;;;;;;13.00;9.75;;;;;8.59;81.20;101126.22;5041911;28;10665;-66
2022/12/20 01:21:43;;;;;;;;;11.75;10.50;;;;;8.59;81.31;101126.22;5061323;28;10943;-65
2022/12/20 01:24:12;;;;;;;;;7.00;7.00;;;;;8.58;81.74;101114.63;5058590;28;10965;-65
2022/12/20 01:26:38;;;;;;;;;11.75;9.25;;;;;8.54;81.84;101125.88;5049529;28;10719;-65
2022/12/20 01:29:05;;;;;;;;;9.00;9.00;;;;;8.48;82.03;101124.75;5061709;28;10835;-66
2022/12/20 01:31:32;;;;;;;;;8.25;8.00;;;;;8.49;82.20;101114.84;5058998;28;10739;-64
2022/12/20 01:33:58;;;;;;;;;11.50;10.50;;;;;8.49;82.53;101117.53;5059117;28;11511;-65
2022/12/20 01:36:28;;;;;;;;;12.00;12.00;;;;;8.50;83.07;101111.97;5062987;28;10867;-66
2022/12/20 01:38:57;;;;;;;;;11.00;9.25;;;;;8.52;82.62;101117.19;5043381;28;10715;-67
2022/12/20 01:41:24;;;;;;;;;13.00;11.25;;;;;8.51;82.94;101118.22;5069839;28;10713;-67
2022/12/20 01:43:57;;;;;;;;;8.25;5.75;;;;;8.51;83.08;101113.69;5058229;28;10715;-65
2022/12/20 01:46:27;;;;;;;;;10.50;9.25;;;;;8.54;83.55;101099.06;5046881;28;10610;-66
2022/12/20 01:49:18;;;;;;;;;10.50;8.00;;;;;8.54;83.71;101093.69;5066093;28;10780;-65
2022/12/20 01:51:49;;;;;;;;;11.00;8.75;;;;;8.47;84.55;101095.41;5039013;28;10700;-65
2022/12/20 01:54:15;;;;;;;;;10.00;7.50;;;;;8.52;84.78;101098.41;5043447;28;10659;-66
2022/12/20 01:56:46;;;;;;;;;9.00;9.00;;;;;8.53;84.42;101097.41;5046396;28;10795;-66
2022/12/20 01:59:13;;;;;;;;;9.50;9.00;;;;;8.52;84.85;101091.19;5061608;28;10654;-66
2022/12/20 02:01:42;;;;;;;;;13.75;10.25;;;;;8.49;84.79;101088.03;5072210;28;10703;-67
2022/12/20 02:04:10;;;;;;;;;8.50;8.50;;;;;8.50;85.27;101087.84;5072478;28;10796;-66
2022/12/20 02:06:36;;;;;;;;;14.50;11.00;;;;;8.49;85.04;101079.97;5060762;28;10709;-66
2022/12/20 02:09:05;;;;;;;;;13.25;9.50;;;;;8.42;85.93;101079.81;5068448;28;10728;-64
2022/12/20 02:11:49;;;;;;;;;10.25;8.75;;;;;8.49;85.52;101071.94;5080889;28;10782;-65
2022/12/20 02:14:43;;;;;;;;;7.00;7.00;;;;;8.45;85.87;101073.28;5046995;28;10802;-65
2022/12/20 02:17:16;;;;;;;;;10.25;9.00;;;;;8.46;86.29;101069.59;5054952;28;10676;-66
2022/12/20 02:20:05;;;;;;;;;10.50;7.25;;;;;8.56;86.04;101070.22;5049407;28;10693;-66
2022/12/20 02:22:59;;;;;;;;;9.50;9.00;;;;;8.56;86.33;101072.91;5060840;28;10744;-66
2022/12/20 02:25:42;;;;;;;;;7.50;7.50;;;;;8.56;86.56;101070.22;5066659;28;10715;-65
2022/12/20 02:28:25;;;;;;;;;8.00;7.50;;;;;8.59;86.30;101075.25;5062311;28;10631;-65
2022/12/20 02:30:53;;;;;;;;;7.75;7.75;;;;;8.64;86.16;101071.00;5078795;28;10660;-65
2022/12/20 02:33:26;;;;;;;;;10.00;8.50;;;;;8.69;85.80;101077.69;5078325;28;10519;-64
2022/12/20 02:35:52;;;;;;;;;9.00;8.00;;;;;8.65;86.16;101070.00;5075406;28;10633;-64
2022/12/20 02:38:27;;;;;;;;;9.75;8.00;;;;;8.63;86.21;101074.72;5057455;28;11283;-66
2022/12/20 02:41:00;;;;;;;;;7.25;7.25;;;;;8.60;85.97;101080.44;5050399;28;10536;-65
2022/12/20 02:46:16;;;;;;;;;10.00;8.25;;;;;8.63;86.28;101081.94;5052325;28;10535;-66
2022/12/20 02:48:45;;;;;;;;;8.75;8.75;;;;;8.65;85.91;101083.41;5069967;28;10676;-65
2022/12/20 02:51:14;;;;;;;;;6.50;6.50;;;;;8.63;85.87;101082.75;5052105;28;10541;-66
2022/12/20 02:53:41;;;;;;;;;10.75;7.25;;;;;8.63;85.98;101072.03;5063301;28;11315;-65
2022/12/20 02:56:18;;;;;;;;;5.50;5.50;;;;;8.68;85.70;101067.97;5039214;28;10462;-65
2022/12/20 02:58:54;;;;;;;;;10.25;9.50;;;;;8.72;86.41;101061.25;5076205;28;10452;-66
2022/12/20 03:01:32;;;;;;;;;13.00;8.00;;;;;8.69;86.10;101059.75;5046006;28;10699;-66
2022/12/20 03:04:00;;;;;;;;;10.25;8.00;;;;;8.68;86.04;101076.88;5049363;28;10618;-66
2022/12/20 03:06:26;;;;;;;;;9.25;9.00;;;;;8.64;86.55;101070.19;5050180;28;10566;-65
2022/12/20 03:08:53;;;;;;;;;8.50;8.50;;;;;8.69;86.63;101061.59;5040448;28;10593;-66
2022/12/20 03:11:23;;;;;;;;;8.50;7.50;;;;;8.67;86.08;101059.09;5048340;28;10590;-64
2022/12/20 03:13:50;;;;;;;;;6.00;6.00;;;;;8.61;86.35;101067.84;5047765;28;10567;-67
2022/12/20 03:16:16;;;;;;;;;9.50;8.75;;;;;8.64;86.53;101068.31;5048880;28;10659;-65
2022/12/20 03:18:44;;;;;;;;;5.00;4.25;;;;;8.69;86.89;101057.06;5066531;28;10692;-66
2022/12/20 03:21:11;;;;;;;;;4.25;4.25;;;;;8.69;86.60;101062.44;5068027;28;11286;-66
2022/12/20 03:23:37;;;;;;;;;6.00;5.75;;;;;8.69;86.15;101058.91;5064052;28;10501;-66
2022/12/20 03:26:05;;;;;;;;;6.00;6.00;;;;;8.72;86.27;101071.97;5050050;28;10603;-66
2022/12/20 03:28:44;;;;;;;;;9.25;8.00;;;;;8.76;86.45;101062.56;5059230;28;10434;-65
2022/12/20 03:31:15;;;;;;;;;6.00;6.00;;;;;8.79;85.98;101071.09;5049314;28;10410;-66
2022/12/20 03:33:47;;;;;;;;;10.75;8.00;;;;;8.81;86.18;101071.75;5055633;28;10532;-66
2022/12/20 03:36:14;;;;;;;;;9.00;8.00;;;;;8.76;86.51;101063.41;5048358;28;10645;-64
2022/12/20 03:38:41;;;;;;;;;8.25;7.50;;;;;8.78;86.57;101052.47;5065109;28;10543;-65
2022/12/20 03:41:08;;;;;;;;;8.50;8.50;;;;;8.78;86.21;101047.94;5048036;28;10471;-64
2022/12/20 03:43:35;;;;;;;;;6.00;6.00;;;;;8.80;86.00;101045.09;5049834;28;10392;-65
2022/12/20 03:46:03;;;;;;;;;11.25;10.00;;;;;8.78;86.49;101044.41;5067953;28;10536;-64
2022/12/20 03:48:33;;;;;;;;;8.00;8.00;;;;;8.74;86.22;101035.06;5041031;28;10506;-64
2022/12/20 03:51:00;;;;;;;;;5.75;5.75;;;;;8.66;86.61;101044.81;5066742;28;10572;-65
2022/12/20 03:53:26;;;;;;;;;9.00;9.00;;;;;8.74;86.05;101033.19;5050996;28;10449;-64
2022/12/20 03:55:52;;;;;;;;;8.00;7.50;;;;;8.77;86.13;101040.91;5048090;28;10527;-63
2022/12/20 03:58:19;;;;;;;;;9.00;7.50;;;;;8.78;86.36;101044.41;5068602;28;10328;-64
2022/12/20 04:00:46;;;;;;;;;9.75;8.75;;;;;8.75;86.28;101045.63;5066284;28;10451;-65
2022/12/20 04:03:33;;;;;;;;;7.00;7.00;;;;;8.76;86.51;101047.28;5064534;28;10441;-65
2022/12/20 04:05:59;;;;;;;;;6.00;6.00;;;;;8.83;85.84;101039.34;5051502;28;10536;-65
2022/12/20 04:08:26;;;;;;;;;8.25;8.25;;;;;8.86;85.97;101039.84;5057294;28;10378;-64
2022/12/20 04:13:47;;;;;;;;;7.50;6.00;;;;;8.85;85.34;101037.34;5047744;28;10304;-67
2022/12/20 04:16:17;;;;;;;;;5.00;5.00;;;;;8.91;84.88;101026.72;5045362;28;10505;-67
2022/12/20 04:18:44;;;;;;;;;8.75;7.75;;;;;8.89;85.17;101019.88;5055886;28;11019;-68
2022/12/20 04:21:12;;;;;;;;;7.00;6.00;;;;;8.90;85.09;101016.16;5042548;28;10396;-68
2022/12/20 04:23:42;;;;;;;;;8.25;8.25;;;;;8.88;85.16;101027.09;5009655;28;10382;-65
2022/12/20 04:26:09;;;;;;;;;8.25;8.25;;;;;8.91;85.25;101025.88;5034279;28;10543;-68
2022/12/20 04:28:36;;;;;;;;;8.50;6.50;;;;;8.97;84.75;101018.97;5041401;28;10373;-68
2022/12/20 04:31:05;;;;;;;;;9.25;8.00;;;;;8.99;84.72;101014.25;5039747;28;10453;-69
2022/12/20 04:33:35;;;;;;;;;5.75;5.75;;;;;9.03;84.31;101007.50;5019849;28;10497;-69
2022/12/20 04:36:02;;;;;;;;;9.50;5.75;;;;;9.01;84.44;101004.16;5013628;28;10347;-68
2022/12/20 04:38:30;;;;;;;;;9.00;6.25;;;;;9.01;84.42;101004.16;5032440;28;10294;-68
2022/12/20 04:40:56;;;;;;;;;5.50;5.50;;;;;9.01;84.47;101007.69;5037664;28;10427;-69
2022/12/20 04:43:25;;;;;;;;;8.25;6.75;;;;;8.97;84.74;101014.44;5041390;28;10549;-69
2022/12/20 04:45:56;;;;;;;;;8.50;5.50;;;;;8.98;84.38;101010.72;5019329;28;10382;-69
2022/12/20 04:48:26;;;;;;;;;8.50;8.50;;;;;9.00;84.51;101014.09;5024343;28;10482;-68
2022/12/20 04:51:12;;;;;;;;;6.75;6.50;;;;;9.04;84.79;100991.22;5024360;28;10498;-69
2022/12/20 04:53:48;;;;;;;;;6.00;6.00;;;;;9.06;84.12;101013.34;5010725;28;10570;-68
2022/12/20 04:56:41;;;;;;;;;7.00;5.00;;;;;9.06;85.08;101007.97;5030356;28;10443;-68
2022/12/20 04:59:11;;;;;;;;;7.00;5.00;;;;;9.10;84.71;101000.41;5030612;28;10505;-68
2022/12/20 05:01:40;;;;;;;;;7.50;6.75;;;;;9.12;85.12;101001.06;5025339;28;10343;-69
2022/12/20 05:04:07;;;;;;;;;8.50;6.75;;;;;9.14;85.06;101002.53;5028796;28;10440;-65
2022/12/20 05:06:35;;;;;;;;;10.25;7.00;;;;;9.08;85.96;100991.69;5012910;28;10374;-67
2022/12/20 05:09:03;;;;;;;;;11.25;9.00;;;;;9.10;86.06;100995.03;5025887;28;11137;-69
2022/12/20 05:11:30;;;;;;;;;8.25;7.00;;;;;9.11;86.22;100986.78;5039672;28;10210;-69
2022/12/20 05:13:57;;;;;;;;;8.00;6.75;;;;;9.12;86.36;100982.25;5031478;28;10428;-68
2022/12/20 05:16:23;;;;;;;;;5.50;5.50;;;;;9.07;86.67;100979.25;5021560;28;10400;-69
2022/12/20 05:18:51;;;;;;;;;8.00;6.00;;;;;9.12;87.56;100979.59;5015498;28;10474;-69
2022/12/20 05:26:57;;;;;;;;;11.75;10.75;;;;;9.13;87.40;100976.69;5021956;28;10658;-69
2022/12/20 05:29:26;;;;;;;;;9.25;8.75;;;;;9.19;87.45;100972.44;5031420;28;10672;-69
2022/12/20 05:31:53;;;;;;;;;7.25;7.25;;;;;9.22;87.59;100963.19;5035017;28;10866;-66
2022/12/20 05:34:19;;;;;;;;;11.25;10.50;;;;;9.15;87.68;100963.09;5015857;28;10562;-69
2022/12/20 05:36:51;;;;;;;;;8.00;7.50;;;;;9.19;87.86;100952.81;5037576;28;10481;-68
2022/12/20 05:39:19;;;;;;;;;10.75;10.25;;;;;9.15;87.40;100955.88;5030578;28;10438;-69
2022/12/20 05:41:47;;;;;;;;;8.75;8.75;;;;;9.18;88.52;100949.28;5050203;28;10507;-69
2022/12/20 05:44:14;;;;;;;;;6.75;6.75;;;;;9.23;87.77;100948.75;5029988;28;10447;-69
2022/12/20 05:46:43;;;;;;;;;13.00;9.25;;;;;9.18;87.89;100949.28;5012938;28;10252;-68
2022/12/20 05:49:15;;;;;;;;;10.50;8.00;;;;;9.22;88.26;100955.13;5025885;28;10505;-67
2022/12/20 05:51:43;;;;;;;;;9.25;9.25;;;;;9.22;88.37;100942.53;5027842;28;10543;-67
2022/12/20 05:54:24;;;;;;;;;11.00;9.00;;;;;9.22;88.79;100947.91;5021916;28;10571;-67
2022/12/20 05:57:04;;;;;;;;;8.25;8.25;;;;;9.29;88.30;100943.47;5030770;28;10464;-68
2022/12/20 05:59:34;;;;;;;;;7.50;6.50;;;;;9.30;88.24;100941.63;5022205;28;10461;-67
2022/12/20 06:02:03;;;;;;;;;7.00;6.25;;;;;9.33;88.08;100944.78;5031653;28;10326;-66
2022/12/20 06:04:31;;;;;;;;;8.00;7.50;;;;;9.35;87.75;100942.72;5011758;28;11165;-68
2022/12/20 06:07:01;;;;;;;;;5.75;5.00;;;;;9.33;88.18;100950.16;5040854;28;10400;-67
2022/12/20 06:09:29;;;;;;;;;8.25;7.25;;;;;9.29;88.16;100939.97;5036234;28;10530;-68
2022/12/20 06:12:03;;;;;;;;;4.00;4.00;;;;;9.30;88.03;100939.78;5033923;28;10397;-68
2022/12/20 06:14:32;;;;;;;;;7.25;6.25;;;;;9.30;87.93;100929.03;5017236;28;10443;-65
2022/12/20 06:16:59;;;;;;;;;5.75;5.50;;;;;9.25;88.36;100933.28;5045107;28;10397;-66
2022/12/20 06:19:26;;;;;;;;;10.00;8.00;;;;;9.28;88.08;100922.19;5026916;28;10534;-67
2022/12/20 06:21:56;;;;;;;;;8.50;8.50;;;;;9.32;88.27;100939.59;5035080;28;10621;-67
2022/12/20 06:24:38;;;;;;;;;8.75;7.00;;;;;9.26;88.13;100940.31;5031999;28;10716;-66
2022/12/20 06:27:13;;;;;;;;;9.50;8.00;;;;;9.29;88.36;100932.75;5034681;28;10491;-67
2022/12/20 06:29:50;;;;;;;;;5.50;5.50;;;;;9.36;88.79;100939.06;5032512;28;10327;-68
2022/12/20 06:32:20;;;;;;;;;9.00;8.50;;;;;9.33;87.99;100944.78;5009157;28;10442;-66
2022/12/20 06:34:47;;;;;;;;;5.50;5.50;;;;;9.36;87.83;100940.91;5020727;28;10363;-64
2022/12/20 06:37:15;;;;;;;;;8.25;8.25;;;;;9.38;88.11;100949.59;5022609;28;10267;-65
2022/12/20 06:39:42;;;;;;;;;6.50;6.50;;;;;9.36;87.81;100944.44;5036556;28;10249;-66
2022/12/20 06:42:09;;;;;;;;;7.75;6.50;;;;;9.39;88.10;100940.53;5031949;28;10316;-64
2022/12/20 06:44:37;;;;;;;;;6.25;5.75;;;;;9.39;87.35;100941.34;5040689;28;10146;-64
2022/12/20 06:47:04;;;;;;;;;5.00;5.00;;;;;9.40;87.52;100937.66;5048884;28;11115;-65
2022/12/20 06:49:31;;;;;;;;;8.25;6.25;;;;;9.36;87.46;100938.22;5017705;28;10297;-64
2022/12/20 06:51:57;;;;;;;;;8.00;7.00;;;;;9.34;87.42;100935.69;5028950;28;10333;-64
2022/12/20 06:54:34;;;;;;;;;8.75;8.75;;;;;9.34;87.47;100934.88;5037243;28;10224;-64
2022/12/20 06:57:00;;;;;;;;;8.50;7.50;;;;;9.29;87.61;100931.91;5033414;28;10316;-66
2022/12/20 06:59:27;;;;;;;;;9.25;8.25;;;;;9.19;87.77;100934.84;5033104;28;10382;-64
2022/12/20 07:01:53;;;;;;;;;6.00;5.75;;;;;9.22;87.47;100923.75;5036581;28;10217;-65
2022/12/20 07:04:20;;;;;;;;;10.50;9.25;;;;;9.26;87.67;100922.34;5029833;28;10410;-66
2022/12/20 07:06:47;;;;;;;;;8.50;7.00;;;;;9.25;86.94;100928.75;5038578;28;10474;-66
2022/12/20 07:09:13;;;;;;;;;4.50;4.50;;;;;9.27;86.95;100925.88;5040501;28;10324;-65
2022/12/20 07:11:42;;;;;;;;;13.00;6.00;;;;;9.20;87.06;100939.22;5051563;28;10318;-64
2022/12/20 07:14:09;;;;;;;;;7.50;6.25;;;;;9.21;87.34;100924.75;5025751;28;10306;-64
2022/12/20 07:16:36;;;;;;;;;5.00;5.00;;;;;9.28;87.00;100922.19;5020580;28;10487;-65
2022/12/20 07:19:03;;;;;;;;;9.75;8.25;;;;;9.27;86.77;100918.66;5022372;28;10573;-64
2022/12/20 07:21:29;;;;;;;;;11.25;8.75;;;;;9.31;86.85;100924.50;5020812;28;10250;-65
2022/12/20 07:23:55;;;;;;;;;8.75;8.75;;;;;9.27;86.47;100931.25;5022243;28;10480;-64
2022/12/20 07:26:22;;;;;;;;;7.25;5.50;;;;;9.29;86.43;100918.47;5010012;28;10385;-66
2022/12/20 07:28:48;;;;;;;;;11.00;7.25;;;;;9.31;86.08;100929.84;5011817;28;10239;-65
2022/12/20 07:31:15;;;;;;;;;8.00;6.50;;;;;9.33;86.09;100914.41;5011833;28;10418;-64
2022/12/20 07:33:41;;;;;;;;;8.50;7.75;;;;;9.30;86.01;100920.97;5031402;28;10987;-67
2022/12/20 07:36:11;;;;;;;;;8.25;8.25;;;;;9.34;85.76;100924.97;5019275;28;12468;-67
2022/12/20 07:38:38;;;;;;;;;9.50;7.25;;;;;9.41;85.61;100933.13;5018168;28;10383;-66
2022/12/20 07:41:09;;;;;;;;;8.00;5.75;;;;;9.40;85.26;100942.22;5022236;28;10438;-66
2022/12/20 07:43:36;;;;;;;;;8.00;7.25;;;;;9.43;85.04;100941.81;5023816;28;10164;-66
2022/12/20 07:46:04;;;;;;;;;4.75;4.75;;;;;9.49;84.91;100929.53;5018158;28;10230;-65
2022/12/20 07:48:31;;;;;;;;;6.00;6.00;;;;;9.51;85.02;100928.28;5025175;28;10063;-63
2022/12/20 07:51:06;;;;;;;;;8.25;6.75;;;;;9.53;84.62;100933.50;5018691;28;10294;-64
2022/12/20 07:53:37;;;;;;;;;6.00;5.50;;;;;9.55;84.98;100939.50;5017490;28;10173;-66
2022/12/20 07:56:07;;;;;;;;;2.75;2.75;;;;;9.51;84.96;100927.47;5015156;28;10214;-65
2022/12/20 07:58:38;;;;;;;;;9.25;9.00;;;;;9.48;84.82;100925.13;5019436;28;10114;-65
2022/12/20 08:01:06;;;;;;;;;10.25;8.00;;;;;9.41;84.97;100923.22;5014130;28;11027;-64
2022/12/20 08:03:46;;;;;;;;;5.50;5.50;;;;;9.43;84.91;100928.38;5038635;28;10143;-67
2022/12/20 08:06:15;;;;;;;;;6.00;6.00;;;;;9.44;85.16;100929.22;5016990;28;10027;-65
2022/12/20 08:08:46;;;;;;;;;6.00;6.00;;;;;9.45;85.06;100929.06;5028678;28;10102;-63
2022/12/20 08:11:15;;;;;;;;;9.50;6.50;;;;;9.42;85.32;100913.28;5030333;28;10241;-63
2022/12/20 08:13:41;;;;;;;;;4.00;4.00;;;;;9.49;84.71;100929.53;5026724;28;10957;-61
2022/12/20 08:16:12;;;;;;;;;5.75;5.75;;;;;9.55;85.07;100921.53;5038100;28;10215;-64
2022/12/20 08:18:39;;;;;;;;;7.25;6.25;;;;;9.56;84.59;100936.66;5028362;28;10360;-64
2022/12/20 08:21:06;;;;;;;;;8.00;6.00;;;;;9.52;84.59;100926.44;5024279;28;10242;-64
2022/12/20 08:23:32;;;;;;;;;5.50;4.25;;;;;9.51;84.80;100938.22;5010888;28;10227;-66
2022/12/20 08:26:01;;;;;;;;;5.00;5.00;;;;;9.55;85.38;100942.19;5011579;28;10168;-63
2022/12/20 08:28:28;;;;;;;;;8.25;6.25;;;;;9.54;84.63;100945.91;5016565;28;10233;-67
2022/12/20 08:31:06;;;;;;;;;6.00;6.00;;;;;9.52;85.06;100946.09;5018328;28;10248;-65
2022/12/20 08:33:34;;;;;;;;;4.00;4.00;;;;;9.54;85.69;100952.13;5019597;28;10302;-64
2022/12/20 08:36:02;;;;;;;;;10.00;7.75;;;;;9.56;85.13;100962.66;5010975;28;10410;-64
2022/12/20 08:38:29;;;;;;;;;14.00;7.25;;;;;9.47;85.37;100948.50;5031354;28;10397;-63
2022/12/20 08:41:10;;;;;;;;;8.50;6.75;;;;;9.50;85.73;100929.31;5028874;28;10321;-64
2022/12/20 08:43:38;;;;;;;;;7.75;5.75;;;;;9.46;86.02;100940.63;5022489;28;10285;-64
2022/12/20 08:46:05;;;;;;;;;8.00;4.75;;;;;9.48;86.39;100943.94;5026345;28;10475;-63
2022/12/20 08:48:32;;;;;;;;;5.00;5.00;;;;;9.52;86.35;100940.72;5015915;28;10389;-63
2022/12/20 08:51:02;;;;;;;;;5.50;5.00;;;;;9.52;86.13;100939.88;5020169;28;10384;-63
2022/12/20 08:53:29;;;;;;;;;5.00;5.00;;;;;9.53;86.46;100939.72;5027897;28;10229;-62
2022/12/20 08:56:21;;;;;;;;;8.00;5.00;;;;;9.54;86.32;100922.56;5030797;28;10082;-64
2022/12/20 08:58:48;;;;;;;;;8.00;6.50;;;;;9.49;86.52;100929.53;5039994;28;10234;-63
2022/12/20 09:01:19;;;;;;;;;7.00;2.00;;;;;9.48;86.60;100931.38;5030736;28;10401;-64
2022/12/20 09:03:47;;;;;;;;;6.50;6.25;;;;;9.49;86.72;100926.84;5015759;28;10170;-62
2022/12/20 09:06:17;;;;;;;;;5.00;4.25;;;;;9.52;86.81;100927.31;5016142;28;10972;-65
2022/12/20 09:08:43;;;;;;;;;4.75;4.75;;;;;9.51;86.46;100927.47;5029945;28;10240;-64
2022/12/20 09:11:13;;;;;;;;;5.75;5.75;;;;;9.46;86.60;100924.50;5032345;28;10245;-64
2022/12/20 09:13:40;;;;;;;;;3.50;3.50;;;;;9.48;87.01;100923.31;5018872;28;10299;-63
2022/12/20 09:16:11;;;;;;;;;8.50;5.00;;;;;9.51;86.99;100930.16;5041706;28;10362;-63
2022/12/20 09:18:38;;;;;;;;;7.25;6.75;;;;;9.51;86.72;100922.91;5021636;28;10223;-65
2022/12/20 09:21:07;;;;;;;;;4.00;4.00;;;;;9.48;86.77;100934.06;5017087;28;10346;-64
2022/12/20 09:23:35;;;;;;;;;5.50;4.50;;;;;9.50;86.78;100944.63;5054538;28;10383;-63
2022/12/20 09:26:04;;;;;;;;;8.25;5.00;;;;;9.49;87.02;100934.91;5052198;28;10371;-63
2022/12/20 09:28:31;;;;;;;;;5.00;4.25;;;;;9.50;86.95;100937.38;5018647;28;10173;-64
2022/12/20 09:31:03;;;;;;;;;4.50;4.50;;;;;9.50;86.71;100932.00;5017102;28;10365;-61
2022/12/20 09:33:31;;;;;;;;;8.25;7.25;;;;;9.48;87.23;100919.75;5024196;28;10253;-63
2022/12/20 09:35:58;;;;;;;;;7.75;6.50;;;;;9.41;86.88;100919.69;5036965;28;10276;-63
2022/12/20 09:38:25;;;;;;;;;8.25;7.50;;;;;9.46;87.57;100925.34;5023485;28;10349;-63
2022/12/20 09:40:56;;;;;;;;;7.50;5.00;;;;;9.48;87.14;100922.44;5016736;28;10320;-63
2022/12/20 09:43:23;;;;;;;;;5.50;5.50;;;;;9.48;86.86;100922.44;5016951;28;10303;-61
2022/12/20 09:45:52;;;;;;;;;5.25;5.25;;;;;9.54;87.45;100927.09;5023447;28;10132;-64
2022/12/20 09:48:23;;;;;;;;;7.75;7.75;;;;;9.51;87.33;100939.03;5021273;28;10339;-64
2022/12/20 09:51:20;;;;;;;;;5.25;5.25;;;;;9.45;87.59;100945.16;5016413;28;10213;-64
2022/12/20 09:54:10;;;;;;;;;8.50;8.50;;;;;9.43;87.52;100943.69;5024512;28;11308;-64
2022/12/20 09:56:44;;;;;;;;;6.00;6.00;;;;;9.37;87.80;100927.28;5031702;28;10401;-63
2022/12/20 09:59:14;;;;;;;;;5.00;5.00;;;;;9.29;88.60;100939.97;5042886;28;10253;-64
2022/12/20 10:01:46;;;;;;;;;9.75;7.00;;;;;9.37;88.82;100943.41;5038954;28;10317;-63
2022/12/20 10:04:28;;;;;;;;;10.50;5.50;;;;;9.44;88.25;100932.75;5016603;28;10415;-63
2022/12/20 10:07:04;;;;;;;;;8.75;6.00;;;;;9.46;88.53;100936.09;5025133;28;10612;-66
2022/12/20 10:09:50;;;;;;;;;8.00;6.50;;;;;9.44;88.46;100927.38;5039603;28;10404;-64
2022/12/20 10:12:47;;;;;;;;;8.25;8.25;;;;;9.43;88.42;100930.25;5069617;23;10347;-63
2022/12/20 10:15:27;;;;;;;;;10.00;9.75;;;;;9.36;88.80;100933.69;5049554;28;10495;-64
2022/12/20 10:18:18;;;;;;;;;6.75;5.00;;;;;9.46;89.04;100924.50;5040748;28;10534;-64
2022/12/20 10:21:08;;;;;;;;;6.00;6.00;;;;;9.54;89.13;100927.09;5041067;28;10378;-65
2022/12/20 10:23:37;;;;;;;;;7.25;6.50;;;;;9.57;89.19;100918.69;5053057;28;10224;-64
2022/12/20 10:26:09;;;;;;;;;5.00;5.00;;;;;9.60;88.87;100918.28;5055736;28;10276;-64
2022/12/20 10:28:36;;;;;;;;;7.00;7.00;;;;;9.58;89.00;100913.09;5056218;28;10270;-64
2022/12/20 10:31:11;;;;;;;;;7.25;6.50;;;;;9.55;89.07;100908.09;5055959;28;10484;-64
2022/12/20 10:33:38;;;;;;;;;8.75;7.75;;;;;9.53;89.37;100904.78;5045063;28;10437;-64
2022/12/20 10:36:27;;;;;;;;;8.75;6.75;;;;;9.55;89.42;100902.72;5037560;28;10496;-64
2022/12/20 10:38:59;;;;;;;;;12.25;10.50;;;;;9.51;89.52;100898.75;5052766;28;10589;-64
2022/12/20 10:41:33;;;;;;;;;7.25;7.25;;;;;9.49;89.57;100900.78;5053022;28;10578;-64
2022/12/20 10:44:03;;;;;;;;;16.75;15.75;;;;;9.51;89.61;100903.28;5051862;28;10365;-63
2022/12/20 10:46:48;;;;;;;;;10.50;8.25;;;;;9.41;89.65;100907.09;5041706;28;10730;-63
2022/12/20 10:49:30;;;;;;;;;9.75;9.75;;;;;9.46;90.04;100903.00;5041288;28;11288;-63
2022/12/20 10:52:01;;;;;;;;;8.00;8.00;;;;;9.51;90.21;100905.97;5033004;28;10462;-65
2022/12/20 10:54:36;;;;;;;;;10.00;8.50;;;;;9.55;90.13;100901.88;5032350;28;10603;-63
2022/12/20 10:57:24;;;;;;;;;12.25;12.25;;;;;9.62;89.60;100897.44;5051230;28;10482;-62
2022/12/20 11:00:04;;;;;;;;;10.75;8.25;;;;;9.54;89.92;100895.69;5042738;28;10601;-63
2022/12/20 11:02:34;;;;;;;;;8.50;8.00;;;;;9.51;90.23;100900.59;5043699;28;10427;-64
2022/12/20 11:05:09;;;;;;;;;9.25;7.25;;;;;9.55;90.20;100904.56;5051572;28;10516;-63
2022/12/20 11:07:50;;;;;;;;;7.25;6.75;;;;;9.53;90.06;100895.88;5038233;28;10317;-63
2022/12/20 11:10:36;;;;;;;;;10.25;10.25;;;;;9.54;90.33;100894.84;5049683;28;11097;-64
2022/12/20 11:13:03;;;;;;;;;10.00;8.75;;;;;9.56;90.08;100898.19;5040907;28;10772;-65
2022/12/20 11:15:32;;;;;;;;;9.00;8.25;;;;;9.62;90.06;100897.44;5048808;28;10635;-64
2022/12/20 11:18:14;;;;;;;;;10.25;9.00;;;;;9.61;89.83;100901.16;5050717;28;10472;-64
2022/12/20 11:20:50;;;;;;;;;10.75;9.00;;;;;9.64;90.10;100900.75;5030971;28;10383;-65
2022/12/20 11:23:35;;;;;;;;;8.00;8.00;;;;;9.64;89.66;100898.94;5046246;28;11199;-64
2022/12/20 11:26:20;;;;;;;;;8.50;8.50;;;;;9.70;89.91;100896.50;5048586;28;10501;-62
2022/12/20 11:29:11;;;;;;;;;11.75;9.75;;;;;9.73;89.70;100891.59;5035010;28;10391;-64
2022/12/20 11:32:06;;;;;;;;;9.50;9.00;;;;;9.69;89.75;100887.63;5030761;28;10398;-62
2022/12/20 11:35:00;;;;;;;;;13.00;9.00;;;;;9.63;90.09;100888.34;5044805;28;10463;-62
2022/12/20 11:37:35;;;;;;;;;13.00;10.25;;;;;9.61;90.45;100883.19;5040780;28;10496;-64
2022/12/20 11:40:32;;;;;;;;;17.50;15.25;;;;;9.66;90.48;100880.75;5039847;28;11168;-64
2022/12/20 11:43:20;;;;;;;;;25.75;22.50;;;;;9.74;90.21;100889.75;5039735;28;10566;-65
2022/12/20 11:46:05;;;;;;;;;8.75;8.75;;;;;9.72;90.33;100889.91;5046684;28;10934;-66
2022/12/20 11:49:00;;;;;;;;;9.50;9.50;;;;;9.66;90.41;100886.13;5036242;28;10358;-62
2022/12/20 11:51:45;;;;;;;;;20.50;17.25;;;;;9.68;90.04;100883.25;5046327;28;10679;-63
2022/12/20 11:54:20;;;;;;;;;15.00;15.00;;;;;9.74;90.18;100879.00;5046635;28;11497;-64
2022/12/20 11:56:51;;;;;;;;;15.50;13.25;;;;;9.76;90.13;100895.75;5051207;28;10546;-63
2022/12/20 11:59:33;;;;;;;;;9.50;9.50;;;;;9.73;90.29;100891.59;5048130;28;10486;-61